NC87 weather

Dogwood Farm Airport
Havelock, North Carolina, United States

Public forecast

Using degrees Fahrenheit for public forecast. Weather courtesy of forecast.io.

METAR (pilot weather report)

Closest report is Cherry Point MCAS /Cunningham Field/, 3.3 nm (6.0 km) ENE. Retrieved 2019/04/23 17:54 UTC (7 minutes ago):

KNKT 231754Z 16008KT 10SM FEW080 FEW200 26/10 A3007 RMK AO2 SLP179 T02560100 10261 20156 58022 $

TAF (pilot weather forecast)

Forecast is more than 12 hours old.

Closest forecast is Cherry Point MCAS /Cunningham Field/, 3.3 nm (6.0 km) ENE. Retrieved 2014/07/10 21:49 UTC (5 years ago):

TAF COR KNKT 102100Z 1021/1121 21012G18KT 9999 VCTS SCT015 BKN025CB OVC040 QNH2999INS TEMPO 1021/1101 20020G30KT 2800 TSRA BKN015 OVC025CB FM110200 20010KT 9999 VCTS SCT015 BKN025CB BKN040 QNH3000INS TEMPO 1103/1106 6000 SHRA BKN015 BKN030 BKN050 FM111400 21012KT 9999 VCTS SCT015 BKN025CB OVC040 QNH3005INS TEMPO 1117/1119 20015G22KT 2800 TSRA BKN015 BKN025CB OVC040 T24/1109Z T31/1118Z COR 2340